sensor_id;sensor_type;location;lat;lon;timestamp;pressure;altitude;pressure_sealevel;temperature;humidity
20444;BME280;10381;53.730;10.010;2023-02-01T00:01:23;100593.09;;;3.58;100.00
20444;BME280;10381;53.730;10.010;2023-02-01T00:05:23;100601.34;;;3.52;100.00
20444;BME280;10381;53.730;10.010;2023-02-01T00:09:24;100601.91;;;3.57;100.00
20444;BME280;10381;53.730;10.010;2023-02-01T00:13:24;100570.25;;;3.74;100.00
20444;BME280;10381;53.730;10.010;2023-02-01T00:17:24;100588.22;;;3.66;100.00
20444;BME280;10381;53.730;10.010;2023-02-01T00:21:25;100595.94;;;3.82;100.00
20444;BME280;10381;53.730;10.010;2023-02-01T00:25:25;100590.28;;;3.75;100.00
20444;BME280;10381;53.730;10.010;2023-02-01T00:29:25;100585.75;;;3.77;100.00
20444;BME280;10381;53.730;10.010;2023-02-01T00:33:27;100588.22;;;3.80;100.00
20444;BME280;10381;53.730;10.010;2023-02-01T00:37:27;100583.72;;;3.82;100.00
20444;BME280;10381;53.730;10.010;2023-02-01T00:41:27;100577.31;;;3.87;100.00
20444;BME280;10381;53.730;10.010;2023-02-01T00:45:28;100570.00;;;3.92;100.00
20444;BME280;10381;53.730;10.010;2023-02-01T00:49:28;100573.56;;;4.18;100.00
20444;BME280;10381;53.730;10.010;2023-02-01T00:53:29;100574.91;;;4.11;100.00
20444;BME280;10381;53.730;10.010;2023-02-01T00:57:30;100574.31;;;4.20;100.00
20444;BME280;10381;53.730;10.010;2023-02-01T01:01:30;100578.22;;;4.27;100.00
20444;BME280;10381;53.730;10.010;2023-02-01T01:05:31;100577.16;;;4.30;100.00
20444;BME280;10381;53.730;10.010;2023-02-01T01:09:31;100581.97;;;4.23;100.00
20444;BME280;10381;53.730;10.010;2023-02-01T01:13:31;100550.09;;;4.29;100.00
20444;BME280;10381;53.730;10.010;2023-02-01T01:17:31;100567.22;;;4.35;100.00
20444;BME280;10381;53.730;10.010;2023-02-01T01:21:33;100561.00;;;4.23;100.00
20444;BME280;10381;53.730;10.010;2023-02-01T01:25:38;100566.97;;;4.25;100.00
20444;BME280;10381;53.730;10.010;2023-02-01T01:29:38;100543.00;;;4.31;100.00
20444;BME280;10381;53.730;10.010;2023-02-01T01:33:39;100534.28;;;4.31;100.00
20444;BME280;10381;53.730;10.010;2023-02-01T01:37:39;100519.47;;;4.30;100.00
20444;BME280;10381;53.730;10.010;2023-02-01T01:41:39;100532.19;;;4.36;100.00
20444;BME280;10381;53.730;10.010;2023-02-01T01:45:40;100519.91;;;4.36;100.00
20444;BME280;10381;53.730;10.010;2023-02-01T01:49:40;100517.81;;;4.41;100.00
20444;BME280;10381;53.730;10.010;2023-02-01T01:53:49;100512.97;;;4.35;100.00
20444;BME280;10381;53.730;10.010;2023-02-01T01:57:57;100515.09;;;4.43;100.00
20444;BME280;10381;53.730;10.010;2023-02-01T02:01:59;100507.34;;;4.54;100.00
20444;BME280;10381;53.730;10.010;2023-02-01T02:06:02;100509.66;;;4.46;100.00
20444;BME280;10381;53.730;10.010;2023-02-01T02:10:06;100507.63;;;4.49;100.00
20444;BME280;10381;53.730;10.010;2023-02-01T02:14:09;100491.59;;;4.54;100.00
20444;BME280;10381;53.730;10.010;2023-02-01T02:23:02;100477.22;;;4.47;100.00
20444;BME280;10381;53.730;10.010;2023-02-01T02:27:15;100474.59;;;4.47;100.00
20444;BME280;10381;53.730;10.010;2023-02-01T02:31:43;100465.06;;;4.46;100.00
20444;BME280;10381;53.730;10.010;2023-02-01T02:35:59;100473.97;;;4.43;100.00
20444;BME280;10381;53.730;10.010;2023-02-01T02:44:48;100476.25;;;4.22;100.00
20444;BME280;10381;53.730;10.010;2023-02-01T02:53:40;100472.81;;;3.55;100.00
20444;BME280;10381;53.730;10.010;2023-02-01T02:58:04;100463.75;;;3.46;100.00
20444;BME280;10381;53.730;10.010;2023-02-01T03:02:25;100464.94;;;3.55;100.00
20444;BME280;10381;53.730;10.010;2023-02-01T03:06:46;100481.16;;;3.47;100.00
20444;BME280;10381;53.730;10.010;2023-02-01T03:11:00;100475.16;;;3.45;100.00
20444;BME280;10381;53.730;10.010;2023-02-01T03:15:07;100476.19;;;3.42;100.00
20444;BME280;10381;53.730;10.010;2023-02-01T03:19:19;100468.69;;;3.51;100.00
20444;BME280;10381;53.730;10.010;2023-02-01T03:23:25;100462.63;;;3.50;100.00
20444;BME280;10381;53.730;10.010;2023-02-01T03:27:32;100455.78;;;3.48;100.00
20444;BME280;10381;53.730;10.010;2023-02-01T03:31:34;100452.78;;;3.54;100.00
20444;BME280;10381;53.730;10.010;2023-02-01T03:35:45;100456.34;;;3.53;100.00
20444;BME280;10381;53.730;10.010;2023-02-01T03:39:54;100442.31;;;3.54;100.00
20444;BME280;10381;53.730;10.010;2023-02-01T03:44:06;100437.63;;;3.59;100.00
20444;BME280;10381;53.730;10.010;2023-02-01T03:48:10;100446.75;;;3.66;100.00
20444;BME280;10381;53.730;10.010;2023-02-01T03:52:14;100445.53;;;3.45;100.00
20444;BME280;10381;53.730;10.010;2023-02-01T03:56:18;100456.75;;;3.47;100.00
20444;BME280;10381;53.730;10.010;2023-02-01T04:00:25;100428.53;;;3.37;100.00
20444;BME280;10381;53.730;10.010;2023-02-01T04:04:25;100426.19;;;3.33;100.00
20444;BME280;10381;53.730;10.010;2023-02-01T04:08:25;100424.63;;;3.30;100.00
20444;BME280;10381;53.730;10.010;2023-02-01T04:12:26;100425.38;;;3.32;100.00
20444;BME280;10381;53.730;10.010;2023-02-01T04:16:26;100415.22;;;3.40;100.00
20444;BME280;10381;53.730;10.010;2023-02-01T04:20:27;100401.84;;;3.45;100.00
20444;BME280;10381;53.730;10.010;2023-02-01T04:24:28;100399.13;;;3.47;100.00
20444;BME280;10381;53.730;10.010;2023-02-01T04:28:28;100405.28;;;3.46;100.00
20444;BME280;10381;53.730;10.010;2023-02-01T04:32:29;100386.09;;;3.32;100.00
20444;BME280;10381;53.730;10.010;2023-02-01T04:36:29;100398.69;;;3.13;100.00
20444;BME280;10381;53.730;10.010;2023-02-01T04:40:29;100397.38;;;3.06;100.00
20444;BME280;10381;53.730;10.010;2023-02-01T04:44:29;100394.09;;;3.02;100.00
20444;BME280;10381;53.730;10.010;2023-02-01T04:48:30;100394.00;;;3.18;100.00
20444;BME280;10381;53.730;10.010;2023-02-01T04:52:30;100398.88;;;3.37;100.00
20444;BME280;10381;53.730;10.010;2023-02-01T04:56:31;100412.66;;;3.26;100.00
20444;BME280;10381;53.730;10.010;2023-02-01T05:00:31;100404.63;;;3.15;100.00
20444;BME280;10381;53.730;10.010;2023-02-01T05:04:31;100392.88;;;3.08;100.00
20444;BME280;10381;53.730;10.010;2023-02-01T05:08:32;100395.59;;;3.06;100.00
20444;BME280;10381;53.730;10.010;2023-02-01T05:12:33;100391.88;;;3.10;100.00
20444;BME280;10381;53.730;10.010;2023-02-01T05:16:54;100381.56;;;3.07;100.00
20444;BME280;10381;53.730;10.010;2023-02-01T05:20:55;100374.53;;;3.08;100.00
20444;BME280;10381;53.730;10.010;2023-02-01T05:24:55;100370.63;;;3.01;100.00
20444;BME280;10381;53.730;10.010;2023-02-01T05:28:55;100372.72;;;2.95;100.00
20444;BME280;10381;53.730;10.010;2023-02-01T05:32:56;100373.66;;;2.94;100.00
20444;BME280;10381;53.730;10.010;2023-02-01T05:36:56;100395.16;;;2.85;100.00
20444;BME280;10381;53.730;10.010;2023-02-01T05:40:56;100370.34;;;2.49;100.00
20444;BME280;10381;53.730;10.010;2023-02-01T05:44:56;100391.16;;;2.08;100.00
20444;BME280;10381;53.730;10.010;2023-02-01T05:48:57;100411.03;;;2.10;100.00
20444;BME280;10381;53.730;10.010;2023-02-01T05:52:57;100415.63;;;2.07;100.00
20444;BME280;10381;53.730;10.010;2023-02-01T05:56:57;100410.47;;;2.05;100.00
20444;BME280;10381;53.730;10.010;2023-02-01T06:01:02;100405.16;;;2.07;100.00
20444;BME280;10381;53.730;10.010;2023-02-01T06:05:03;100404.97;;;2.10;100.00
20444;BME280;10381;53.730;10.010;2023-02-01T06:09:03;100395.16;;;2.13;100.00
20444;BME280;10381;53.730;10.010;2023-02-01T06:13:04;100388.56;;;2.22;100.00
20444;BME280;10381;53.730;10.010;2023-02-01T06:17:04;100387.34;;;2.28;100.00
20444;BME280;10381;53.730;10.010;2023-02-01T06:21:06;100387.06;;;2.32;100.00
20444;BME280;10381;53.730;10.010;2023-02-01T06:25:08;100391.38;;;2.33;100.00
20444;BME280;10381;53.730;10.010;2023-02-01T06:29:10;100390.41;;;2.20;100.00
20444;BME280;10381;53.730;10.010;2023-02-01T06:33:10;100385.38;;;2.17;100.00
20444;BME280;10381;53.730;10.010;2023-02-01T06:37:10;100386.28;;;2.16;100.00
20444;BME280;10381;53.730;10.010;2023-02-01T06:41:11;100376.13;;;2.11;100.00
20444;BME280;10381;53.730;10.010;2023-02-01T06:45:11;100384.91;;;2.10;100.00
20444;BME280;10381;53.730;10.010;2023-02-01T06:49:11;100371.66;;;2.13;100.00
20444;BME280;10381;53.730;10.010;2023-02-01T06:53:12;100376.53;;;2.20;100.00
20444;BME280;10381;53.730;10.010;2023-02-01T06:57:12;100384.72;;;2.28;100.00
20444;BME280;10381;53.730;10.010;2023-02-01T07:01:13;100378.00;;;2.38;100.00
20444;BME280;10381;53.730;10.010;2023-02-01T07:05:13;100383.34;;;2.37;100.00
20444;BME280;10381;53.730;10.010;2023-02-01T07:09:14;100392.28;;;2.47;100.00
20444;BME280;10381;53.730;10.010;2023-02-01T07:13:14;100397.16;;;2.53;100.00
20444;BME280;10381;53.730;10.010;2023-02-01T07:17:14;100400.41;;;2.71;100.00
20444;BME280;10381;53.730;10.010;2023-02-01T07:21:15;100394.25;;;2.86;100.00
20444;BME280;10381;53.730;10.010;2023-02-01T07:25:15;100393.28;;;3.02;100.00
20444;BME280;10381;53.730;10.010;2023-02-01T07:29:15;100389.88;;;3.14;100.00
20444;BME280;10381;53.730;10.010;2023-02-01T07:33:18;100384.88;;;3.24;100.00
20444;BME280;10381;53.730;10.010;2023-02-01T07:37:19;100373.31;;;3.40;100.00
20444;BME280;10381;53.730;10.010;2023-02-01T07:41:19;100382.78;;;3.56;100.00
20444;BME280;10381;53.730;10.010;2023-02-01T07:45:19;100387.44;;;3.65;100.00
20444;BME280;10381;53.730;10.010;2023-02-01T07:49:20;100381.16;;;3.68;100.00
20444;BME280;10381;53.730;10.010;2023-02-01T07:53:20;100394.53;;;3.63;100.00
20444;BME280;10381;53.730;10.010;2023-02-01T07:57:20;100397.91;;;3.65;100.00
20444;BME280;10381;53.730;10.010;2023-02-01T08:01:23;100398.22;;;3.60;100.00
20444;BME280;10381;53.730;10.010;2023-02-01T08:05:27;100398.13;;;3.62;100.00
20444;BME280;10381;53.730;10.010;2023-02-01T08:09:27;100418.13;;;3.63;100.00
20444;BME280;10381;53.730;10.010;2023-02-01T08:13:27;100411.06;;;3.78;100.00
20444;BME280;10381;53.730;10.010;2023-02-01T08:17:27;100425.44;;;3.85;100.00
20444;BME280;10381;53.730;10.010;2023-02-01T08:21:28;100426.59;;;3.94;100.00
20444;BME280;10381;53.730;10.010;2023-02-01T08:25:36;100432.72;;;4.07;100.00
20444;BME280;10381;53.730;10.010;2023-02-01T08:29:36;100424.84;;;4.07;100.00
20444;BME280;10381;53.730;10.010;2023-02-01T08:33:37;100417.59;;;4.11;100.00
20444;BME280;10381;53.730;10.010;2023-02-01T08:37:37;100423.38;;;4.03;100.00
20444;BME280;10381;53.730;10.010;2023-02-01T08:41:38;100410.13;;;3.92;100.00
20444;BME280;10381;53.730;10.010;2023-02-01T08:45:39;100413.69;;;3.78;100.00
20444;BME280;10381;53.730;10.010;2023-02-01T08:49:39;100404.03;;;3.78;100.00
20444;BME280;10381;53.730;10.010;2023-02-01T08:53:40;100404.13;;;3.77;100.00
20444;BME280;10381;53.730;10.010;2023-02-01T08:57:42;100403.59;;;3.84;100.00
20444;BME280;10381;53.730;10.010;2023-02-01T09:01:42;100401.72;;;3.87;100.00
20444;BME280;10381;53.730;10.010;2023-02-01T09:05:43;100403.44;;;3.88;100.00
20444;BME280;10381;53.730;10.010;2023-02-01T09:09:44;100386.53;;;3.79;100.00
20444;BME280;10381;53.730;10.010;2023-02-01T09:13:44;100428.81;;;3.60;100.00
20444;BME280;10381;53.730;10.010;2023-02-01T09:17:45;100412.44;;;3.29;100.00
20444;BME280;10381;53.730;10.010;2023-02-01T09:21:45;100390.41;;;3.46;100.00
20444;BME280;10381;53.730;10.010;2023-02-01T09:25:46;100425.34;;;3.59;100.00
20444;BME280;10381;53.730;10.010;2023-02-01T09:29:46;100414.22;;;3.83;100.00
20444;BME280;10381;53.730;10.010;2023-02-01T09:33:52;100407.63;;;3.90;100.00
20444;BME280;10381;53.730;10.010;2023-02-01T09:37:53;100402.38;;;4.03;100.00
20444;BME280;10381;53.730;10.010;2023-02-01T09:41:56;100394.97;;;4.22;100.00
20444;BME280;10381;53.730;10.010;2023-02-01T09:46:18;100388.13;;;4.33;100.00
20444;BME280;10381;53.730;10.010;2023-02-01T09:50:22;100411.13;;;4.55;100.00
20444;BME280;10381;53.730;10.010;2023-02-01T09:54:36;100383.53;;;4.62;100.00
20444;BME280;10381;53.730;10.010;2023-02-01T09:59:23;100361.53;;;4.76;100.00
20444;BME280;10381;53.730;10.010;2023-02-01T10:03:32;100373.69;;;4.89;100.00
20444;BME280;10381;53.730;10.010;2023-02-01T10:07:48;100366.53;;;4.91;100.00
20444;BME280;10381;53.730;10.010;2023-02-01T10:16:13;100386.19;;;4.86;100.00
20444;BME280;10381;53.730;10.010;2023-02-01T10:20:28;100351.63;;;4.92;100.00
20444;BME280;10381;53.730;10.010;2023-02-01T10:24:37;100364.66;;;4.94;100.00
20444;BME280;10381;53.730;10.010;2023-02-01T10:28:40;100363.28;;;4.88;100.00
20444;BME280;10381;53.730;10.010;2023-02-01T10:32:42;100346.16;;;4.58;100.00
20444;BME280;10381;53.730;10.010;2023-02-01T10:36:52;100339.25;;;4.32;100.00
20444;BME280;10381;53.730;10.010;2023-02-01T10:40:56;100350.97;;;4.52;100.00
20444;BME280;10381;53.730;10.010;2023-02-01T10:45:02;100334.00;;;4.57;100.00
20444;BME280;10381;53.730;10.010;2023-02-01T10:49:04;100326.31;;;4.67;100.00
20444;BME280;10381;53.730;10.010;2023-02-01T10:57:19;100307.81;;;4.68;100.00
20444;BME280;10381;53.730;10.010;2023-02-01T11:01:25;100300.28;;;4.88;100.00
20444;BME280;10381;53.730;10.010;2023-02-01T11:05:43;100290.81;;;4.98;100.00
20444;BME280;10381;53.730;10.010;2023-02-01T11:09:52;100276.78;;;5.10;100.00
20444;BME280;10381;53.730;10.010;2023-02-01T11:14:00;100275.38;;;5.18;100.00
20444;BME280;10381;53.730;10.010;2023-02-01T11:18:15;100270.91;;;5.07;100.00
20444;BME280;10381;53.730;10.010;2023-02-01T11:22:17;100258.09;;;4.91;100.00
20444;BME280;10381;53.730;10.010;2023-02-01T11:26:25;100250.47;;;4.99;100.00
20444;BME280;10381;53.730;10.010;2023-02-01T11:30:38;100249.69;;;5.10;100.00
20444;BME280;10381;53.730;10.010;2023-02-01T11:34:49;100237.78;;;5.17;100.00
20444;BME280;10381;53.730;10.010;2023-02-01T11:38:54;100241.09;;;5.08;100.00
20444;BME280;10381;53.730;10.010;2023-02-01T11:43:07;100227.84;;;5.09;100.00
20444;BME280;10381;53.730;10.010;2023-02-01T11:47:26;100242.19;;;5.17;100.00
20444;BME280;10381;53.730;10.010;2023-02-01T12:09:15;100192.03;;;5.08;100.00
20444;BME280;10381;53.730;10.010;2023-02-01T12:13:42;100179.84;;;5.07;100.00
20444;BME280;10381;53.730;10.010;2023-02-01T12:26:55;100225.16;;;4.13;100.00
20444;BME280;10381;53.730;10.010;2023-02-01T12:31:11;100230.03;;;3.94;100.00
20444;BME280;10381;53.730;10.010;2023-02-01T12:39:54;100247.84;;;3.37;100.00
20444;BME280;10381;53.730;10.010;2023-02-01T12:48:32;100242.69;;;3.23;100.00
20444;BME280;10381;53.730;10.010;2023-02-01T12:52:40;100267.59;;;3.16;100.00
20444;BME280;10381;53.730;10.010;2023-02-01T12:56:49;100262.97;;;3.07;100.00
20444;BME280;10381;53.730;10.010;2023-02-01T13:00:57;100247.47;;;3.04;100.00
20444;BME280;10381;53.730;10.010;2023-02-01T13:05:21;100244.63;;;3.07;100.00
20444;BME280;10381;53.730;10.010;2023-02-01T13:09:27;100253.03;;;3.12;100.00
20444;BME280;10381;53.730;10.010;2023-02-01T13:13:42;100234.94;;;3.22;100.00
20444;BME280;10381;53.730;10.010;2023-02-01T13:17:46;100230.75;;;3.32;100.00
20444;BME280;10381;53.730;10.010;2023-02-01T13:21:56;100232.03;;;3.52;100.00
20444;BME280;10381;53.730;10.010;2023-02-01T13:25:58;100240.31;;;3.71;100.00
20444;BME280;10381;53.730;10.010;2023-02-01T13:30:01;100249.75;;;3.61;100.00
20444;BME280;10381;53.730;10.010;2023-02-01T13:39:01;100281.34;;;3.32;100.00
20444;BME280;10381;53.730;10.010;2023-02-01T13:43:38;100286.59;;;3.32;100.00
20444;BME280;10381;53.730;10.010;2023-02-01T13:47:44;100284.47;;;3.25;100.00
20444;BME280;10381;53.730;10.010;2023-02-01T13:51:49;100283.69;;;3.10;100.00
20444;BME280;10381;53.730;10.010;2023-02-01T14:05:04;100283.75;;;2.95;100.00
20444;BME280;10381;53.730;10.010;2023-02-01T14:25:23;100312.53;;;2.95;100.00
20444;BME280;10381;53.730;10.010;2023-02-01T14:29:40;100309.25;;;2.79;100.00
20444;BME280;10381;53.730;10.010;2023-02-01T14:33:42;100315.63;;;2.61;100.00
20444;BME280;10381;53.730;10.010;2023-02-01T14:37:43;100321.19;;;2.69;100.00
20444;BME280;10381;53.730;10.010;2023-02-01T14:41:46;100320.16;;;2.71;100.00
20444;BME280;10381;53.730;10.010;2023-02-01T14:45:49;100310.81;;;2.82;100.00
20444;BME280;10381;53.730;10.010;2023-02-01T14:50:03;100310.53;;;2.86;100.00
20444;BME280;10381;53.730;10.010;2023-02-01T14:54:04;100307.59;;;2.91;100.00
20444;BME280;10381;53.730;10.010;2023-02-01T15:02:27;100301.69;;;3.02;100.00
20444;BME280;10381;53.730;10.010;2023-02-01T15:10:46;100311.34;;;3.14;100.00
20444;BME280;10381;53.730;10.010;2023-02-01T15:15:18;100301.72;;;3.14;100.00
20444;BME280;10381;53.730;10.010;2023-02-01T15:19:23;100320.25;;;3.11;100.00
20444;BME280;10381;53.730;10.010;2023-02-01T15:23:24;100312.31;;;3.13;100.00
20444;BME280;10381;53.730;10.010;2023-02-01T15:27:26;100319.50;;;3.09;100.00
20444;BME280;10381;53.730;10.010;2023-02-01T15:31:36;100339.41;;;3.12;100.00
20444;BME280;10381;53.730;10.010;2023-02-01T15:35:48;100362.75;;;3.15;100.00
20444;BME280;10381;53.730;10.010;2023-02-01T15:44:37;100353.19;;;3.28;100.00
20444;BME280;10381;53.730;10.010;2023-02-01T15:48:48;100343.75;;;3.26;100.00
20444;BME280;10381;53.730;10.010;2023-02-01T15:52:53;100351.50;;;3.27;100.00
20444;BME280;10381;53.730;10.010;2023-02-01T15:56:55;100349.22;;;3.35;100.00
20444;BME280;10381;53.730;10.010;2023-02-01T16:00:59;100346.53;;;3.37;100.00
20444;BME280;10381;53.730;10.010;2023-02-01T16:05:02;100352.28;;;3.42;100.00
20444;BME280;10381;53.730;10.010;2023-02-01T16:09:10;100347.88;;;3.42;100.00
20444;BME280;10381;53.730;10.010;2023-02-01T16:13:12;100349.22;;;3.35;100.00
20444;BME280;10381;53.730;10.010;2023-02-01T16:17:12;100351.63;;;3.38;100.00
20444;BME280;10381;53.730;10.010;2023-02-01T16:21:13;100357.94;;;3.49;100.00
20444;BME280;10381;53.730;10.010;2023-02-01T16:25:13;100356.81;;;3.53;100.00
20444;BME280;10381;53.730;10.010;2023-02-01T16:29:14;100366.47;;;3.65;100.00
20444;BME280;10381;53.730;10.010;2023-02-01T16:33:18;100365.25;;;3.71;100.00
20444;BME280;10381;53.730;10.010;2023-02-01T16:37:22;100361.66;;;3.72;100.00
20444;BME280;10381;53.730;10.010;2023-02-01T16:41:23;100362.31;;;3.75;100.00
20444;BME280;10381;53.730;10.010;2023-02-01T16:45:24;100363.47;;;3.71;100.00
20444;BME280;10381;53.730;10.010;2023-02-01T16:49:24;100374.16;;;3.68;100.00
20444;BME280;10381;53.730;10.010;2023-02-01T16:53:26;100378.00;;;3.62;100.00
20444;BME280;10381;53.730;10.010;2023-02-01T16:57:27;100383.91;;;3.79;100.00
20444;BME280;10381;53.730;10.010;2023-02-01T17:01:29;100378.53;;;3.68;100.00
20444;BME280;10381;53.730;10.010;2023-02-01T17:05:31;100372.44;;;3.67;100.00
20444;BME280;10381;53.730;10.010;2023-02-01T17:09:31;100384.94;;;3.76;100.00
20444;BME280;10381;53.730;10.010;2023-02-01T17:13:32;100385.63;;;3.93;100.00
20444;BME280;10381;53.730;10.010;2023-02-01T17:17:36;100370.09;;;4.02;100.00
20444;BME280;10381;53.730;10.010;2023-02-01T17:21:51;100371.91;;;4.02;100.00
20444;BME280;10381;53.730;10.010;2023-02-01T17:25:54;100370.75;;;4.19;100.00
20444;BME280;10381;53.730;10.010;2023-02-01T17:29:54;100366.63;;;4.27;100.00
20444;BME280;10381;53.730;10.010;2023-02-01T17:33:56;100377.22;;;4.39;100.00
20444;BME280;10381;53.730;10.010;2023-02-01T17:37:56;100370.50;;;4.35;100.00
20444;BME280;10381;53.730;10.010;2023-02-01T17:41:58;100366.31;;;4.32;100.00
20444;BME280;10381;53.730;10.010;2023-02-01T17:46:01;100367.56;;;4.39;100.00
20444;BME280;10381;53.730;10.010;2023-02-01T17:50:03;100353.84;;;4.36;100.00
20444;BME280;10381;53.730;10.010;2023-02-01T17:54:03;100351.22;;;4.36;100.00
20444;BME280;10381;53.730;10.010;2023-02-01T17:58:04;100365.16;;;4.49;100.00
20444;BME280;10381;53.730;10.010;2023-02-01T18:02:24;100363.16;;;4.53;100.00
20444;BME280;10381;53.730;10.010;2023-02-01T18:06:25;100375.75;;;4.35;100.00
20444;BME280;10381;53.730;10.010;2023-02-01T18:10:26;100367.38;;;4.17;100.00
20444;BME280;10381;53.730;10.010;2023-02-01T18:14:26;100379.75;;;4.02;100.00
20444;BME280;10381;53.730;10.010;2023-02-01T18:18:27;100370.19;;;4.01;100.00
20444;BME280;10381;53.730;10.010;2023-02-01T18:22:29;100358.13;;;4.37;100.00
20444;BME280;10381;53.730;10.010;2023-02-01T18:26:30;100356.88;;;4.30;100.00
20444;BME280;10381;53.730;10.010;2023-02-01T18:30:32;100351.63;;;4.30;100.00
20444;BME280;10381;53.730;10.010;2023-02-01T18:34:33;100358.44;;;4.58;100.00
20444;BME280;10381;53.730;10.010;2023-02-01T18:38:33;100356.25;;;4.39;100.00
20444;BME280;10381;53.730;10.010;2023-02-01T18:42:33;100346.25;;;4.57;100.00
20444;BME280;10381;53.730;10.010;2023-02-01T18:46:33;100348.44;;;4.63;100.00
20444;BME280;10381;53.730;10.010;2023-02-01T18:50:37;100360.00;;;4.60;100.00
20444;BME280;10381;53.730;10.010;2023-02-01T18:54:38;100357.66;;;4.68;100.00
20444;BME280;10381;53.730;10.010;2023-02-01T18:58:39;100363.13;;;4.65;100.00
20444;BME280;10381;53.730;10.010;2023-02-01T19:02:39;100334.56;;;4.74;100.00
20444;BME280;10381;53.730;10.010;2023-02-01T19:06:39;100334.50;;;4.62;100.00
20444;BME280;10381;53.730;10.010;2023-02-01T19:10:43;100337.81;;;4.77;100.00
20444;BME280;10381;53.730;10.010;2023-02-01T19:14:43;100340.53;;;4.88;100.00
20444;BME280;10381;53.730;10.010;2023-02-01T19:18:43;100332.66;;;4.76;100.00
20444;BME280;10381;53.730;10.010;2023-02-01T19:22:44;100333.50;;;4.76;100.00
20444;BME280;10381;53.730;10.010;2023-02-01T19:26:45;100369.25;;;4.53;100.00
20444;BME280;10381;53.730;10.010;2023-02-01T19:30:48;100384.69;;;4.32;100.00
20444;BME280;10381;53.730;10.010;2023-02-01T19:34:48;100380.69;;;4.26;100.00
20444;BME280;10381;53.730;10.010;2023-02-01T19:38:48;100384.47;;;4.22;100.00
20444;BME280;10381;53.730;10.010;2023-02-01T19:42:49;100403.34;;;4.02;100.00
20444;BME280;10381;53.730;10.010;2023-02-01T19:46:50;100392.19;;;3.86;100.00
20444;BME280;10381;53.730;10.010;2023-02-01T19:50:50;100386.28;;;3.69;100.00
20444;BME280;10381;53.730;10.010;2023-02-01T19:54:50;100381.25;;;3.66;100.00
20444;BME280;10381;53.730;10.010;2023-02-01T19:58:51;100382.69;;;3.97;100.00
20444;BME280;10381;53.730;10.010;2023-02-01T20:02:51;100389.38;;;3.89;100.00
20444;BME280;10381;53.730;10.010;2023-02-01T20:06:51;100415.19;;;3.95;100.00
20444;BME280;10381;53.730;10.010;2023-02-01T20:10:54;100392.53;;;3.94;100.00
20444;BME280;10381;53.730;10.010;2023-02-01T20:14:54;100392.63;;;3.92;100.00
20444;BME280;10381;53.730;10.010;2023-02-01T20:18:55;100395.88;;;3.83;100.00
20444;BME280;10381;53.730;10.010;2023-02-01T20:22:55;100383.72;;;3.95;100.00
20444;BME280;10381;53.730;10.010;2023-02-01T20:26:56;100396.94;;;3.93;100.00
20444;BME280;10381;53.730;10.010;2023-02-01T20:30:57;100376.56;;;3.97;100.00
20444;BME280;10381;53.730;10.010;2023-02-01T20:34:57;100378.50;;;4.08;100.00
20444;BME280;10381;53.730;10.010;2023-02-01T20:38:58;100378.91;;;4.40;100.00
20444;BME280;10381;53.730;10.010;2023-02-01T20:42:58;100380.16;;;4.47;100.00
20444;BME280;10381;53.730;10.010;2023-02-01T20:46:58;100390.13;;;4.55;100.00
20444;BME280;10381;53.730;10.010;2023-02-01T20:50:59;100395.69;;;4.50;100.00
20444;BME280;10381;53.730;10.010;2023-02-01T20:54:59;100401.16;;;4.60;100.00
20444;BME280;10381;53.730;10.010;2023-02-01T20:59:00;100408.25;;;4.70;100.00
20444;BME280;10381;53.730;10.010;2023-02-01T21:03:03;100410.06;;;4.44;100.00
20444;BME280;10381;53.730;10.010;2023-02-01T21:07:03;100432.50;;;4.10;100.00
20444;BME280;10381;53.730;10.010;2023-02-01T21:11:05;100428.06;;;3.58;100.00
20444;BME280;10381;53.730;10.010;2023-02-01T21:15:07;100439.06;;;3.63;100.00
20444;BME280;10381;53.730;10.010;2023-02-01T21:19:07;100440.94;;;3.75;100.00
20444;BME280;10381;53.730;10.010;2023-02-01T21:23:08;100443.41;;;3.64;100.00
20444;BME280;10381;53.730;10.010;2023-02-01T21:27:09;100445.25;;;3.89;100.00
20444;BME280;10381;53.730;10.010;2023-02-01T21:31:10;100425.66;;;3.95;100.00
20444;BME280;10381;53.730;10.010;2023-02-01T21:35:11;100449.34;;;3.93;100.00
20444;BME280;10381;53.730;10.010;2023-02-01T21:39:11;100444.78;;;4.10;100.00
20444;BME280;10381;53.730;10.010;2023-02-01T21:43:11;100434.50;;;4.19;100.00
20444;BME280;10381;53.730;10.010;2023-02-01T21:47:13;100471.00;;;4.22;100.00
20444;BME280;10381;53.730;10.010;2023-02-01T21:51:16;100462.00;;;4.26;100.00
20444;BME280;10381;53.730;10.010;2023-02-01T21:55:17;100463.56;;;4.29;100.00
20444;BME280;10381;53.730;10.010;2023-02-01T21:59:18;100464.09;;;4.21;100.00
20444;BME280;10381;53.730;10.010;2023-02-01T22:03:18;100458.41;;;4.02;100.00
20444;BME280;10381;53.730;10.010;2023-02-01T22:07:18;100472.09;;;3.93;100.00
20444;BME280;10381;53.730;10.010;2023-02-01T22:11:19;100470.63;;;3.89;100.00
20444;BME280;10381;53.730;10.010;2023-02-01T22:15:19;100489.94;;;4.00;100.00
20444;BME280;10381;53.730;10.010;2023-02-01T22:19:19;100479.16;;;4.05;100.00
20444;BME280;10381;53.730;10.010;2023-02-01T22:23:19;100472.06;;;4.33;100.00
20444;BME280;10381;53.730;10.010;2023-02-01T22:27:20;100488.97;;;4.29;100.00
20444;BME280;10381;53.730;10.010;2023-02-01T22:31:20;100493.25;;;4.30;100.00
20444;BME280;10381;53.730;10.010;2023-02-01T22:35:20;100505.00;;;4.37;100.00
20444;BME280;10381;53.730;10.010;2023-02-01T22:39:21;100506.50;;;4.41;100.00